sensor_id;sensor_type;location;lat;lon;timestamp;P1;durP1;ratioP1;P2;durP2;ratioP2
15063;SDS011;7631;52.088;5.088;2022-12-18T00:01:22;29.40;;;16.17;;
15063;SDS011;7631;52.088;5.088;2022-12-18T00:03:48;34.10;;;17.53;;
15063;SDS011;7631;52.088;5.088;2022-12-18T00:06:13;29.87;;;16.73;;
15063;SDS011;7631;52.088;5.088;2022-12-18T00:08:40;31.10;;;17.07;;
15063;SDS011;7631;52.088;5.088;2022-12-18T00:11:10;29.83;;;17.30;;
15063;SDS011;7631;52.088;5.088;2022-12-18T00:13:35;28.93;;;16.67;;
15063;SDS011;7631;52.088;5.088;2022-12-18T00:16:01;31.33;;;17.57;;
15063;SDS011;7631;52.088;5.088;2022-12-18T00:18:27;31.53;;;16.20;;
15063;SDS011;7631;52.088;5.088;2022-12-18T00:20:52;31.97;;;16.53;;
15063;SDS011;7631;52.088;5.088;2022-12-18T00:23:17;33.90;;;17.93;;
15063;SDS011;7631;52.088;5.088;2022-12-18T00:25:43;30.07;;;16.83;;
15063;SDS011;7631;52.088;5.088;2022-12-18T00:28:08;28.83;;;16.03;;
15063;SDS011;7631;52.088;5.088;2022-12-18T00:30:33;30.13;;;16.60;;
15063;SDS011;7631;52.088;5.088;2022-12-18T00:32:58;31.63;;;17.33;;
15063;SDS011;7631;52.088;5.088;2022-12-18T00:35:23;31.60;;;15.97;;
15063;SDS011;7631;52.088;5.088;2022-12-18T00:37:49;30.20;;;16.57;;
15063;SDS011;7631;52.088;5.088;2022-12-18T00:40:14;30.27;;;16.57;;
15063;SDS011;7631;52.088;5.088;2022-12-18T00:42:40;33.00;;;17.33;;
15063;SDS011;7631;52.088;5.088;2022-12-18T00:45:27;29.73;;;16.67;;
15063;SDS011;7631;52.088;5.088;2022-12-18T00:47:52;31.90;;;16.77;;
15063;SDS011;7631;52.088;5.088;2022-12-18T00:50:18;30.93;;;16.93;;
15063;SDS011;7631;52.088;5.088;2022-12-18T00:52:43;30.57;;;17.10;;
15063;SDS011;7631;52.088;5.088;2022-12-18T00:55:09;29.20;;;16.07;;
15063;SDS011;7631;52.088;5.088;2022-12-18T00:57:34;30.80;;;17.40;;
15063;SDS011;7631;52.088;5.088;2022-12-18T00:59:59;30.43;;;17.37;;
15063;SDS011;7631;52.088;5.088;2022-12-18T01:02:24;27.70;;;16.00;;
15063;SDS011;7631;52.088;5.088;2022-12-18T01:04:50;27.97;;;15.20;;
15063;SDS011;7631;52.088;5.088;2022-12-18T01:07:15;28.70;;;16.33;;
15063;SDS011;7631;52.088;5.088;2022-12-18T01:09:40;30.93;;;16.30;;
15063;SDS011;7631;52.088;5.088;2022-12-18T01:12:05;29.10;;;16.60;;
15063;SDS011;7631;52.088;5.088;2022-12-18T01:14:31;28.10;;;15.30;;
15063;SDS011;7631;52.088;5.088;2022-12-18T01:16:56;28.13;;;15.77;;
15063;SDS011;7631;52.088;5.088;2022-12-18T01:19:21;29.60;;;16.23;;
15063;SDS011;7631;52.088;5.088;2022-12-18T01:21:46;29.30;;;16.43;;
15063;SDS011;7631;52.088;5.088;2022-12-18T01:24:12;26.97;;;15.43;;
15063;SDS011;7631;52.088;5.088;2022-12-18T01:26:37;29.17;;;16.53;;
15063;SDS011;7631;52.088;5.088;2022-12-18T01:29:02;29.50;;;16.80;;
15063;SDS011;7631;52.088;5.088;2022-12-18T01:31:28;30.37;;;16.23;;
15063;SDS011;7631;52.088;5.088;2022-12-18T01:33:54;28.13;;;15.70;;
15063;SDS011;7631;52.088;5.088;2022-12-18T01:36:20;30.43;;;16.40;;
15063;SDS011;7631;52.088;5.088;2022-12-18T01:38:46;27.47;;;16.07;;
15063;SDS011;7631;52.088;5.088;2022-12-18T01:41:12;29.97;;;16.83;;
15063;SDS011;7631;52.088;5.088;2022-12-18T01:43:44;30.67;;;17.27;;
15063;SDS011;7631;52.088;5.088;2022-12-18T01:46:10;26.83;;;15.87;;
15063;SDS011;7631;52.088;5.088;2022-12-18T01:48:35;29.13;;;16.63;;
15063;SDS011;7631;52.088;5.088;2022-12-18T01:51:01;32.73;;;17.80;;
15063;SDS011;7631;52.088;5.088;2022-12-18T01:53:26;28.37;;;16.10;;
15063;SDS011;7631;52.088;5.088;2022-12-18T01:55:52;28.27;;;16.67;;
15063;SDS011;7631;52.088;5.088;2022-12-18T01:58:18;28.53;;;15.87;;
15063;SDS011;7631;52.088;5.088;2022-12-18T02:00:44;27.27;;;16.33;;
15063;SDS011;7631;52.088;5.088;2022-12-18T02:03:09;28.90;;;16.13;;
15063;SDS011;7631;52.088;5.088;2022-12-18T02:15:33;28.23;;;15.83;;
15063;SDS011;7631;52.088;5.088;2022-12-18T02:18:03;29.73;;;16.67;;
15063;SDS011;7631;52.088;5.088;2022-12-18T02:20:42;26.27;;;15.50;;
15063;SDS011;7631;52.088;5.088;2022-12-18T02:28:21;29.03;;;16.27;;
15063;SDS011;7631;52.088;5.088;2022-12-18T02:30:47;29.33;;;16.57;;
15063;SDS011;7631;52.088;5.088;2022-12-18T02:33:13;32.73;;;17.80;;
15063;SDS011;7631;52.088;5.088;2022-12-18T02:35:40;24.30;;;15.10;;
15063;SDS011;7631;52.088;5.088;2022-12-18T02:38:05;26.97;;;15.93;;
15063;SDS011;7631;52.088;5.088;2022-12-18T02:40:31;29.60;;;16.33;;
15063;SDS011;7631;52.088;5.088;2022-12-18T02:43:02;28.77;;;15.77;;
15063;SDS011;7631;52.088;5.088;2022-12-18T02:45:27;26.80;;;15.93;;
15063;SDS011;7631;52.088;5.088;2022-12-18T02:47:52;26.90;;;15.33;;
15063;SDS011;7631;52.088;5.088;2022-12-18T02:50:30;28.43;;;15.10;;
15063;SDS011;7631;52.088;5.088;2022-12-18T02:58:05;29.37;;;16.33;;
15063;SDS011;7631;52.088;5.088;2022-12-18T03:03:06;29.23;;;16.07;;
15063;SDS011;7631;52.088;5.088;2022-12-18T03:05:46;25.87;;;15.90;;
15063;SDS011;7631;52.088;5.088;2022-12-18T03:08:17;26.70;;;15.20;;
15063;SDS011;7631;52.088;5.088;2022-12-18T03:10:45;26.17;;;15.17;;
15063;SDS011;7631;52.088;5.088;2022-12-18T03:13:21;30.67;;;16.53;;
15063;SDS011;7631;52.088;5.088;2022-12-18T03:15:49;26.87;;;15.43;;
15063;SDS011;7631;52.088;5.088;2022-12-18T03:20:41;24.93;;;14.93;;
15063;SDS011;7631;52.088;5.088;2022-12-18T03:23:09;28.57;;;16.03;;
15063;SDS011;7631;52.088;5.088;2022-12-18T03:25:35;29.63;;;15.83;;
15063;SDS011;7631;52.088;5.088;2022-12-18T03:28:02;26.47;;;16.00;;
15063;SDS011;7631;52.088;5.088;2022-12-18T03:30:28;30.13;;;16.63;;
15063;SDS011;7631;52.088;5.088;2022-12-18T03:35:26;28.20;;;15.97;;
15063;SDS011;7631;52.088;5.088;2022-12-18T03:37:53;25.57;;;14.73;;
15063;SDS011;7631;52.088;5.088;2022-12-18T03:40:20;29.50;;;16.43;;
15063;SDS011;7631;52.088;5.088;2022-12-18T03:42:48;25.97;;;14.90;;
15063;SDS011;7631;52.088;5.088;2022-12-18T03:47:47;28.00;;;16.63;;
15063;SDS011;7631;52.088;5.088;2022-12-18T03:50:21;29.30;;;15.87;;
15063;SDS011;7631;52.088;5.088;2022-12-18T03:55:15;28.50;;;15.93;;
15063;SDS011;7631;52.088;5.088;2022-12-18T03:57:41;26.73;;;15.23;;
15063;SDS011;7631;52.088;5.088;2022-12-18T04:02:32;27.33;;;15.57;;
15063;SDS011;7631;52.088;5.088;2022-12-18T04:04:59;27.23;;;15.57;;
15063;SDS011;7631;52.088;5.088;2022-12-18T04:07:25;27.20;;;16.13;;
15063;SDS011;7631;52.088;5.088;2022-12-18T04:09:50;26.50;;;14.83;;
15063;SDS011;7631;52.088;5.088;2022-12-18T04:12:18;25.67;;;15.33;;
15063;SDS011;7631;52.088;5.088;2022-12-18T04:14:43;27.03;;;15.63;;
15063;SDS011;7631;52.088;5.088;2022-12-18T04:17:09;25.20;;;14.93;;
15063;SDS011;7631;52.088;5.088;2022-12-18T04:19:35;28.20;;;15.47;;
15063;SDS011;7631;52.088;5.088;2022-12-18T04:22:00;27.20;;;15.20;;
15063;SDS011;7631;52.088;5.088;2022-12-18T04:24:25;27.27;;;15.73;;
15063;SDS011;7631;52.088;5.088;2022-12-18T04:26:50;23.57;;;14.73;;
15063;SDS011;7631;52.088;5.088;2022-12-18T04:29:15;25.47;;;15.33;;
15063;SDS011;7631;52.088;5.088;2022-12-18T04:31:41;27.80;;;15.97;;
15063;SDS011;7631;52.088;5.088;2022-12-18T04:34:06;22.47;;;14.30;;
15063;SDS011;7631;52.088;5.088;2022-12-18T04:36:31;27.50;;;14.83;;
15063;SDS011;7631;52.088;5.088;2022-12-18T04:38:56;25.73;;;15.20;;
15063;SDS011;7631;52.088;5.088;2022-12-18T04:41:21;26.87;;;16.07;;
15063;SDS011;7631;52.088;5.088;2022-12-18T04:43:47;27.00;;;15.97;;
15063;SDS011;7631;52.088;5.088;2022-12-18T04:46:12;24.77;;;15.67;;
15063;SDS011;7631;52.088;5.088;2022-12-18T04:48:37;25.87;;;15.17;;
15063;SDS011;7631;52.088;5.088;2022-12-18T04:51:03;28.10;;;15.30;;
15063;SDS011;7631;52.088;5.088;2022-12-18T04:53:28;22.80;;;14.33;;
15063;SDS011;7631;52.088;5.088;2022-12-18T04:56:04;25.13;;;15.17;;
15063;SDS011;7631;52.088;5.088;2022-12-18T04:58:29;23.87;;;14.20;;
15063;SDS011;7631;52.088;5.088;2022-12-18T05:00:54;24.77;;;14.60;;
15063;SDS011;7631;52.088;5.088;2022-12-18T05:03:19;24.17;;;14.87;;
15063;SDS011;7631;52.088;5.088;2022-12-18T05:05:44;25.83;;;15.03;;
15063;SDS011;7631;52.088;5.088;2022-12-18T05:08:10;23.40;;;14.47;;
15063;SDS011;7631;52.088;5.088;2022-12-18T05:10:35;25.97;;;14.60;;
15063;SDS011;7631;52.088;5.088;2022-12-18T05:13:00;23.50;;;14.23;;
15063;SDS011;7631;52.088;5.088;2022-12-18T05:15:27;21.40;;;14.30;;
15063;SDS011;7631;52.088;5.088;2022-12-18T05:17:52;25.37;;;14.53;;
15063;SDS011;7631;52.088;5.088;2022-12-18T05:20:17;22.97;;;14.27;;
15063;SDS011;7631;52.088;5.088;2022-12-18T05:22:43;25.63;;;14.77;;
15063;SDS011;7631;52.088;5.088;2022-12-18T05:25:08;25.83;;;15.07;;
15063;SDS011;7631;52.088;5.088;2022-12-18T05:27:33;25.20;;;15.10;;
15063;SDS011;7631;52.088;5.088;2022-12-18T05:29:58;22.57;;;14.33;;
15063;SDS011;7631;52.088;5.088;2022-12-18T05:32:24;23.40;;;14.37;;
15063;SDS011;7631;52.088;5.088;2022-12-18T05:34:49;23.27;;;14.40;;
15063;SDS011;7631;52.088;5.088;2022-12-18T05:37:14;23.13;;;14.23;;
15063;SDS011;7631;52.088;5.088;2022-12-18T05:39:39;25.67;;;14.33;;
15063;SDS011;7631;52.088;5.088;2022-12-18T05:42:04;22.57;;;13.27;;
15063;SDS011;7631;52.088;5.088;2022-12-18T05:44:30;23.27;;;13.87;;
15063;SDS011;7631;52.088;5.088;2022-12-18T05:46:55;21.60;;;13.50;;
15063;SDS011;7631;52.088;5.088;2022-12-18T05:49:20;22.33;;;13.23;;
15063;SDS011;7631;52.088;5.088;2022-12-18T05:51:45;21.53;;;12.93;;
15063;SDS011;7631;52.088;5.088;2022-12-18T05:54:11;23.50;;;13.63;;
15063;SDS011;7631;52.088;5.088;2022-12-18T05:56:36;22.23;;;14.23;;
15063;SDS011;7631;52.088;5.088;2022-12-18T05:59:01;22.73;;;14.33;;
15063;SDS011;7631;52.088;5.088;2022-12-18T06:01:26;21.53;;;12.83;;
15063;SDS011;7631;52.088;5.088;2022-12-18T06:03:52;21.17;;;12.97;;
15063;SDS011;7631;52.088;5.088;2022-12-18T06:06:18;21.40;;;13.33;;
15063;SDS011;7631;52.088;5.088;2022-12-18T06:08:44;17.97;;;11.43;;
15063;SDS011;7631;52.088;5.088;2022-12-18T06:11:09;19.57;;;12.80;;
15063;SDS011;7631;52.088;5.088;2022-12-18T06:13:34;19.07;;;11.90;;
15063;SDS011;7631;52.088;5.088;2022-12-18T06:16:01;20.93;;;12.33;;
15063;SDS011;7631;52.088;5.088;2022-12-18T06:18:26;20.27;;;12.93;;
15063;SDS011;7631;52.088;5.088;2022-12-18T06:20:55;20.30;;;12.50;;
15063;SDS011;7631;52.088;5.088;2022-12-18T06:23:21;21.00;;;11.43;;
15063;SDS011;7631;52.088;5.088;2022-12-18T06:25:46;19.07;;;12.17;;
15063;SDS011;7631;52.088;5.088;2022-12-18T06:28:11;17.37;;;11.63;;
15063;SDS011;7631;52.088;5.088;2022-12-18T06:30:36;18.17;;;11.47;;
15063;SDS011;7631;52.088;5.088;2022-12-18T06:33:02;19.40;;;12.57;;
15063;SDS011;7631;52.088;5.088;2022-12-18T06:35:27;17.40;;;11.90;;
15063;SDS011;7631;52.088;5.088;2022-12-18T06:37:52;18.77;;;11.50;;
15063;SDS011;7631;52.088;5.088;2022-12-18T06:40:17;21.77;;;11.83;;
15063;SDS011;7631;52.088;5.088;2022-12-18T06:42:43;18.40;;;12.20;;
15063;SDS011;7631;52.088;5.088;2022-12-18T06:45:08;18.37;;;11.47;;
15063;SDS011;7631;52.088;5.088;2022-12-18T06:47:33;14.87;;;10.77;;
15063;SDS011;7631;52.088;5.088;2022-12-18T06:49:59;19.33;;;11.87;;
15063;SDS011;7631;52.088;5.088;2022-12-18T06:52:24;17.17;;;11.40;;
15063;SDS011;7631;52.088;5.088;2022-12-18T06:54:49;19.10;;;10.90;;
15063;SDS011;7631;52.088;5.088;2022-12-18T06:57:14;16.87;;;10.20;;
15063;SDS011;7631;52.088;5.088;2022-12-18T06:59:39;16.53;;;10.53;;
15063;SDS011;7631;52.088;5.088;2022-12-18T07:02:05;16.97;;;10.67;;
15063;SDS011;7631;52.088;5.088;2022-12-18T07:04:30;16.27;;;11.33;;
15063;SDS011;7631;52.088;5.088;2022-12-18T07:06:56;19.07;;;11.67;;
15063;SDS011;7631;52.088;5.088;2022-12-18T07:09:21;17.40;;;11.07;;
15063;SDS011;7631;52.088;5.088;2022-12-18T07:11:46;14.60;;;9.90;;
15063;SDS011;7631;52.088;5.088;2022-12-18T07:14:11;16.77;;;10.47;;
15063;SDS011;7631;52.088;5.088;2022-12-18T07:16:36;17.00;;;10.43;;
15063;SDS011;7631;52.088;5.088;2022-12-18T07:19:02;16.13;;;10.57;;
15063;SDS011;7631;52.088;5.088;2022-12-18T07:21:27;19.00;;;11.27;;
15063;SDS011;7631;52.088;5.088;2022-12-18T07:23:52;16.27;;;10.60;;
15063;SDS011;7631;52.088;5.088;2022-12-18T07:26:18;15.63;;;10.27;;
15063;SDS011;7631;52.088;5.088;2022-12-18T07:28:43;15.57;;;10.33;;
15063;SDS011;7631;52.088;5.088;2022-12-18T07:31:10;14.10;;;10.17;;
15063;SDS011;7631;52.088;5.088;2022-12-18T07:33:36;18.10;;;11.07;;
15063;SDS011;7631;52.088;5.088;2022-12-18T07:36:02;15.20;;;9.77;;
15063;SDS011;7631;52.088;5.088;2022-12-18T07:38:28;15.33;;;9.83;;
15063;SDS011;7631;52.088;5.088;2022-12-18T07:40:53;15.83;;;9.93;;
15063;SDS011;7631;52.088;5.088;2022-12-18T07:43:18;12.33;;;9.80;;
15063;SDS011;7631;52.088;5.088;2022-12-18T07:45:44;14.60;;;9.17;;
15063;SDS011;7631;52.088;5.088;2022-12-18T07:48:09;14.73;;;10.30;;
15063;SDS011;7631;52.088;5.088;2022-12-18T07:50:34;14.57;;;9.43;;
15063;SDS011;7631;52.088;5.088;2022-12-18T07:52:59;16.57;;;9.60;;
15063;SDS011;7631;52.088;5.088;2022-12-18T07:55:28;15.90;;;10.03;;
15063;SDS011;7631;52.088;5.088;2022-12-18T07:57:54;14.20;;;9.80;;
15063;SDS011;7631;52.088;5.088;2022-12-18T08:00:19;15.23;;;9.57;;
15063;SDS011;7631;52.088;5.088;2022-12-18T08:02:44;13.13;;;9.17;;
15063;SDS011;7631;52.088;5.088;2022-12-18T08:05:09;15.57;;;9.43;;
15063;SDS011;7631;52.088;5.088;2022-12-18T08:07:35;15.70;;;9.50;;
15063;SDS011;7631;52.088;5.088;2022-12-18T08:10:00;13.57;;;8.77;;
15063;SDS011;7631;52.088;5.088;2022-12-18T08:12:25;16.00;;;9.90;;
15063;SDS011;7631;52.088;5.088;2022-12-18T08:14:50;14.23;;;9.30;;
15063;SDS011;7631;52.088;5.088;2022-12-18T08:17:16;13.47;;;9.57;;
15063;SDS011;7631;52.088;5.088;2022-12-18T08:19:41;14.93;;;9.53;;
15063;SDS011;7631;52.088;5.088;2022-12-18T08:22:06;13.97;;;9.37;;
15063;SDS011;7631;52.088;5.088;2022-12-18T08:24:31;14.70;;;8.83;;
15063;SDS011;7631;52.088;5.088;2022-12-18T08:26:56;13.87;;;9.20;;
15063;SDS011;7631;52.088;5.088;2022-12-18T08:29:22;15.07;;;9.43;;
15063;SDS011;7631;52.088;5.088;2022-12-18T08:31:47;13.73;;;8.73;;
15063;SDS011;7631;52.088;5.088;2022-12-18T08:34:12;14.50;;;9.33;;
15063;SDS011;7631;52.088;5.088;2022-12-18T08:36:38;13.87;;;8.87;;
15063;SDS011;7631;52.088;5.088;2022-12-18T08:39:03;15.60;;;9.27;;
15063;SDS011;7631;52.088;5.088;2022-12-18T08:41:28;14.03;;;8.70;;
15063;SDS011;7631;52.088;5.088;2022-12-18T08:43:53;15.23;;;9.40;;
15063;SDS011;7631;52.088;5.088;2022-12-18T08:46:38;14.93;;;8.80;;
15063;SDS011;7631;52.088;5.088;2022-12-18T08:49:03;14.43;;;9.70;;
15063;SDS011;7631;52.088;5.088;2022-12-18T08:51:28;14.93;;;9.10;;
15063;SDS011;7631;52.088;5.088;2022-12-18T08:53:54;13.57;;;9.00;;
15063;SDS011;7631;52.088;5.088;2022-12-18T08:56:19;13.27;;;9.27;;
15063;SDS011;7631;52.088;5.088;2022-12-18T08:58:44;13.83;;;9.40;;
15063;SDS011;7631;52.088;5.088;2022-12-18T09:01:10;12.73;;;8.67;;
15063;SDS011;7631;52.088;5.088;2022-12-18T09:03:36;12.40;;;8.77;;
15063;SDS011;7631;52.088;5.088;2022-12-18T09:06:01;14.50;;;9.17;;
15063;SDS011;7631;52.088;5.088;2022-12-18T09:08:27;14.00;;;9.23;;
15063;SDS011;7631;52.088;5.088;2022-12-18T09:10:52;14.52;;;11.48;;
15063;SDS011;7631;52.088;5.088;2022-12-18T09:13:18;16.30;;;12.80;;
15063;SDS011;7631;52.088;5.088;2022-12-18T09:15:44;16.17;;;13.70;;
15063;SDS011;7631;52.088;5.088;2022-12-18T09:18:13;14.83;;;11.23;;
15063;SDS011;7631;52.088;5.088;2022-12-18T09:20:39;14.37;;;10.63;;
15063;SDS011;7631;52.088;5.088;2022-12-18T09:23:04;16.07;;;11.03;;
15063;SDS011;7631;52.088;5.088;2022-12-18T09:25:30;17.50;;;10.70;;
15063;SDS011;7631;52.088;5.088;2022-12-18T09:27:58;14.87;;;10.03;;
15063;SDS011;7631;52.088;5.088;2022-12-18T09:30:23;15.90;;;10.73;;
15063;SDS011;7631;52.088;5.088;2022-12-18T09:32:48;16.73;;;11.07;;
15063;SDS011;7631;52.088;5.088;2022-12-18T09:35:13;15.87;;;10.40;;
15063;SDS011;7631;52.088;5.088;2022-12-18T09:37:39;17.53;;;10.40;;
15063;SDS011;7631;52.088;5.088;2022-12-18T09:40:04;16.30;;;10.23;;
15063;SDS011;7631;52.088;5.088;2022-12-18T09:42:29;16.93;;;11.40;;
15063;SDS011;7631;52.088;5.088;2022-12-18T09:44:55;13.67;;;9.53;;
15063;SDS011;7631;52.088;5.088;2022-12-18T09:49:46;14.87;;;10.27;;
15063;SDS011;7631;52.088;5.088;2022-12-18T09:52:23;16.23;;;10.63;;
15063;SDS011;7631;52.088;5.088;2022-12-18T09:54:56;13.63;;;9.70;;
15063;SDS011;7631;52.088;5.088;2022-12-18T09:57:24;14.20;;;10.10;;
15063;SDS011;7631;52.088;5.088;2022-12-18T09:59:59;15.13;;;9.90;;
15063;SDS011;7631;52.088;5.088;2022-12-18T10:02:30;15.15;;;11.23;;
15063;SDS011;7631;52.088;5.088;2022-12-18T10:05:05;16.80;;;10.93;;
15063;SDS011;7631;52.088;5.088;2022-12-18T10:10:06;15.37;;;10.30;;
15063;SDS011;7631;52.088;5.088;2022-12-18T10:12:34;17.00;;;10.90;;
15063;SDS011;7631;52.088;5.088;2022-12-18T10:17:45;16.07;;;11.10;;
15063;SDS011;7631;52.088;5.088;2022-12-18T10:20:20;17.03;;;10.90;;
15063;SDS011;7631;52.088;5.088;2022-12-18T10:28:17;14.83;;;10.03;;
15063;SDS011;7631;52.088;5.088;2022-12-18T10:30:43;15.87;;;10.60;;
15063;SDS011;7631;52.088;5.088;2022-12-18T10:33:10;13.83;;;10.03;;
15063;SDS011;7631;52.088;5.088;2022-12-18T10:35:37;14.47;;;10.20;;
15063;SDS011;7631;52.088;5.088;2022-12-18T10:38:06;14.73;;;10.00;;
15063;SDS011;7631;52.088;5.088;2022-12-18T10:40:32;14.87;;;10.10;;
15063;SDS011;7631;52.088;5.088;2022-12-18T10:43:04;14.73;;;9.90;;
15063;SDS011;7631;52.088;5.088;2022-12-18T10:45:31;13.60;;;9.53;;
15063;SDS011;7631;52.088;5.088;2022-12-18T10:47:56;16.03;;;9.43;;
15063;SDS011;7631;52.088;5.088;2022-12-18T10:52:58;13.73;;;10.13;;
15063;SDS011;7631;52.088;5.088;2022-12-18T10:55:24;15.50;;;10.20;;
15063;SDS011;7631;52.088;5.088;2022-12-18T10:57:52;14.73;;;10.07;;
15063;SDS011;7631;52.088;5.088;2022-12-18T11:00:28;15.10;;;9.77;;
15063;SDS011;7631;52.088;5.088;2022-12-18T11:02:54;14.90;;;10.40;;
15063;SDS011;7631;52.088;5.088;2022-12-18T11:05:24;14.57;;;10.07;;
15063;SDS011;7631;52.088;5.088;2022-12-18T11:07:50;14.10;;;9.33;;
15063;SDS011;7631;52.088;5.088;2022-12-18T11:10:25;14.17;;;8.93;;
15063;SDS011;7631;52.088;5.088;2022-12-18T11:12:50;15.17;;;9.30;;
15063;SDS011;7631;52.088;5.088;2022-12-18T11:15:20;12.97;;;9.37;;
15063;SDS011;7631;52.088;5.088;2022-12-18T11:17:47;14.23;;;8.83;;
15063;SDS011;7631;52.088;5.088;2022-12-18T11:22:43;13.67;;;9.23;;
15063;SDS011;7631;52.088;5.088;2022-12-18T11:25:19;14.90;;;9.70;;
15063;SDS011;7631;52.088;5.088;2022-12-18T11:27:58;13.50;;;8.97;;
15063;SDS011;7631;52.088;5.088;2022-12-18T11:32:54;12.67;;;8.80;;
15063;SDS011;7631;52.088;5.088;2022-12-18T11:35:23;12.37;;;9.23;;
15063;SDS011;7631;52.088;5.088;2022-12-18T11:37:53;12.10;;;7.87;;
15063;SDS011;7631;52.088;5.088;2022-12-18T11:40:25;13.00;;;8.87;;
15063;SDS011;7631;52.088;5.088;2022-12-18T11:43:01;13.53;;;9.07;;
15063;SDS011;7631;52.088;5.088;2022-12-18T11:45:30;12.90;;;8.80;;
15063;SDS011;7631;52.088;5.088;2022-12-18T11:48:04;12.07;;;8.70;;
15063;SDS011;7631;52.088;5.088;2022-12-18T11:50:41;12.77;;;8.83;;
15063;SDS011;7631;52.088;5.088;2022-12-18T11:53:12;13.80;;;8.67;;
15063;SDS011;7631;52.088;5.088;2022-12-18T11:58:18;13.47;;;9.43;;
15063;SDS011;7631;52.088;5.088;2022-12-18T12:00:50;13.87;;;9.17;;
15063;SDS011;7631;52.088;5.088;2022-12-18T12:11:05;12.07;;;8.87;;
15063;SDS011;7631;52.088;5.088;2022-12-18T12:13:36;12.47;;;8.50;;
15063;SDS011;7631;52.088;5.088;2022-12-18T12:16:09;11.13;;;8.23;;
15063;SDS011;7631;52.088;5.088;2022-12-18T12:23:40;13.50;;;8.33;;
15063;SDS011;7631;52.088;5.088;2022-12-18T12:26:08;12.33;;;8.80;;
15063;SDS011;7631;52.088;5.088;2022-12-18T12:31:23;15.97;;;9.00;;
15063;SDS011;7631;52.088;5.088;2022-12-18T12:39:06;11.73;;;8.20;;
15063;SDS011;7631;52.088;5.088;2022-12-18T12:41:33;12.13;;;8.87;;
15063;SDS011;7631;52.088;5.088;2022-12-18T12:44:24;12.73;;;8.90;;
15063;SDS011;7631;52.088;5.088;2022-12-18T12:46:51;12.27;;;8.33;;
15063;SDS011;7631;52.088;5.088;2022-12-18T12:49:18;12.50;;;8.27;;
15063;SDS011;7631;52.088;5.088;2022-12-18T12:51:58;12.60;;;8.37;;
15063;SDS011;7631;52.088;5.088;2022-12-18T12:54:24;13.57;;;9.03;;
15063;SDS011;7631;52.088;5.088;2022-12-18T13:04:36;13.20;;;8.60;;
15063;SDS011;7631;52.088;5.088;2022-12-18T13:09:33;13.97;;;8.43;;
15063;SDS011;7631;52.088;5.088;2022-12-18T13:12:03;13.30;;;8.53;;
15063;SDS011;7631;52.088;5.088;2022-12-18T13:14:48;12.73;;;8.20;;
15063;SDS011;7631;52.088;5.088;2022-12-18T13:17:31;12.83;;;9.00;;
15063;SDS011;7631;52.088;5.088;2022-12-18T13:20:04;13.73;;;8.90;;
15063;SDS011;7631;52.088;5.088;2022-12-18T13:22:51;13.33;;;8.93;;
15063;SDS011;7631;52.088;5.088;2022-12-18T13:25:32;13.27;;;8.90;;
15063;SDS011;7631;52.088;5.088;2022-12-18T13:35:38;12.73;;;8.63;;
15063;SDS011;7631;52.088;5.088;2022-12-18T13:38:19;12.13;;;8.63;;
15063;SDS011;7631;52.088;5.088;2022-12-18T13:45:46;13.17;;;9.53;;
15063;SDS011;7631;52.088;5.088;2022-12-18T13:48:20;12.40;;;8.50;;
15063;SDS011;7631;52.088;5.088;2022-12-18T13:51:03;12.43;;;8.53;;
15063;SDS011;7631;52.088;5.088;2022-12-18T13:53:30;11.67;;;8.07;;
15063;SDS011;7631;52.088;5.088;2022-12-18T13:55:58;12.30;;;8.50;;
15063;SDS011;7631;52.088;5.088;2022-12-18T13:58:23;11.23;;;8.10;;
15063;SDS011;7631;52.088;5.088;2022-12-18T14:00:48;12.97;;;8.50;;
15063;SDS011;7631;52.088;5.088;2022-12-18T14:03:24;14.43;;;9.27;;
15063;SDS011;7631;52.088;5.088;2022-12-18T14:05:54;13.57;;;9.20;;
15063;SDS011;7631;52.088;5.088;2022-12-18T14:08:20;11.53;;;8.63;;
15063;SDS011;7631;52.088;5.088;2022-12-18T14:10:46;11.60;;;8.83;;
15063;SDS011;7631;52.088;5.088;2022-12-18T14:13:15;13.47;;;9.00;;
15063;SDS011;7631;52.088;5.088;2022-12-18T14:15:42;14.40;;;9.00;;
15063;SDS011;7631;52.088;5.088;2022-12-18T14:18:24;12.43;;;9.17;;
15063;SDS011;7631;52.088;5.088;2022-12-18T14:20:50;12.60;;;8.73;;
15063;SDS011;7631;52.088;5.088;2022-12-18T14:23:35;12.57;;;8.70;;
15063;SDS011;7631;52.088;5.088;2022-12-18T14:26:46;11.87;;;8.40;;
15063;SDS011;7631;52.088;5.088;2022-12-18T14:28:46;11.53;;;8.07;;
15063;SDS011;7631;52.088;5.088;2022-12-18T14:31:22;12.63;;;7.97;;
15063;SDS011;7631;52.088;5.088;2022-12-18T14:33:48;13.23;;;8.43;;
15063;SDS011;7631;52.088;5.088;2022-12-18T14:36:18;12.50;;;8.97;;
15063;SDS011;7631;52.088;5.088;2022-12-18T14:38:47;12.20;;;8.13;;
15063;SDS011;7631;52.088;5.088;2022-12-18T14:41:13;12.73;;;8.37;;
15063;SDS011;7631;52.088;5.088;2022-12-18T14:43:39;12.10;;;8.50;;
15063;SDS011;7631;52.088;5.088;2022-12-18T14:46:05;14.23;;;9.20;;
15063;SDS011;7631;52.088;5.088;2022-12-18T14:48:38;13.13;;;9.33;;
15063;SDS011;7631;52.088;5.088;2022-12-18T14:51:05;11.47;;;8.00;;
15063;SDS011;7631;52.088;5.088;2022-12-18T14:53:39;13.07;;;9.43;;
15063;SDS011;7631;52.088;5.088;2022-12-18T14:56:44;10.80;;;7.53;;
15063;SDS011;7631;52.088;5.088;2022-12-18T14:58:58;11.63;;;8.27;;
15063;SDS011;7631;52.088;5.088;2022-12-18T15:01:24;11.83;;;8.73;;
15063;SDS011;7631;52.088;5.088;2022-12-18T15:03:51;13.23;;;8.67;;
15063;SDS011;7631;52.088;5.088;2022-12-18T15:09:24;13.23;;;8.77;;
15063;SDS011;7631;52.088;5.088;2022-12-18T15:11:54;13.23;;;8.70;;
15063;SDS011;7631;52.088;5.088;2022-12-18T15:17:01;12.23;;;8.43;;
15063;SDS011;7631;52.088;5.088;2022-12-18T15:19:39;11.90;;;7.97;;
15063;SDS011;7631;52.088;5.088;2022-12-18T15:22:14;11.90;;;7.93;;
15063;SDS011;7631;52.088;5.088;2022-12-18T15:24:42;12.37;;;8.63;;
15063;SDS011;7631;52.088;5.088;2022-12-18T15:27:19;12.23;;;8.83;;
15063;SDS011;7631;52.088;5.088;2022-12-18T15:29:58;11.63;;;7.83;;
15063;SDS011;7631;52.088;5.088;2022-12-18T15:32:23;13.50;;;9.03;;
15063;SDS011;7631;52.088;5.088;2022-12-18T15:34:49;12.50;;;8.93;;
15063;SDS011;7631;52.088;5.088;2022-12-18T15:37:14;12.60;;;8.73;;
15063;SDS011;7631;52.088;5.088;2022-12-18T15:39:40;13.23;;;9.33;;
15063;SDS011;7631;52.088;5.088;2022-12-18T15:42:08;12.53;;;8.57;;
15063;SDS011;7631;52.088;5.088;2022-12-18T15:44:52;14.67;;;9.23;;
15063;SDS011;7631;52.088;5.088;2022-12-18T15:47:17;13.43;;;9.47;;
15063;SDS011;7631;52.088;5.088;2022-12-18T15:49:43;13.33;;;9.37;;
15063;SDS011;7631;52.088;5.088;2022-12-18T15:52:08;12.70;;;9.10;;
15063;SDS011;7631;52.088;5.088;2022-12-18T15:54:35;13.00;;;9.13;;
15063;SDS011;7631;52.088;5.088;2022-12-18T15:57:21;14.13;;;9.10;;
15063;SDS011;7631;52.088;5.088;2022-12-18T15:59:49;12.60;;;8.83;;
15063;SDS011;7631;52.088;5.088;2022-12-18T16:02:18;12.17;;;8.87;;
15063;SDS011;7631;52.088;5.088;2022-12-18T16:04:44;13.00;;;9.13;;
15063;SDS011;7631;52.088;5.088;2022-12-18T16:07:10;13.27;;;8.93;;
15063;SDS011;7631;52.088;5.088;2022-12-18T16:09:36;12.23;;;8.73;;
15063;SDS011;7631;52.088;5.088;2022-12-18T16:12:01;12.93;;;8.87;;
15063;SDS011;7631;52.088;5.088;2022-12-18T16:14:28;14.43;;;9.40;;
15063;SDS011;7631;52.088;5.088;2022-12-18T16:16:57;12.77;;;9.37;;
15063;SDS011;7631;52.088;5.088;2022-12-18T16:19:23;14.10;;;9.23;;
15063;SDS011;7631;52.088;5.088;2022-12-18T16:21:49;13.40;;;9.03;;
15063;SDS011;7631;52.088;5.088;2022-12-18T16:24:16;13.00;;;9.37;;
15063;SDS011;7631;52.088;5.088;2022-12-18T16:26:42;13.27;;;9.10;;
15063;SDS011;7631;52.088;5.088;2022-12-18T16:29:07;12.97;;;8.47;;
15063;SDS011;7631;52.088;5.088;2022-12-18T16:31:32;12.87;;;8.97;;